Time;durP1;ratioP1;P1;durP2;ratioP2;P2;SDS_P1;SDS_P2;PMS_P1;PMS_P2;Temp;Humidity;BMP_temperature;BMP_pressure;BME280_temperature;BME280_humidity;BME280_pressure;Samples;Min_cycle;Max_cycle;Signal;HPM_P1;HPM_P2
2023/05/11 00:04:10;;;;;;;29.20;18.00;;;23.80;54.20;;;;;;221545;1262;22615;-44
2023/05/11 00:09:14;;;;;;;27.20;17.60;;;23.60;54.40;;;;;;221517;1263;22699;-45
2023/05/11 00:14:19;;;;;;;28.30;18.60;;;23.60;54.80;;;;;;221487;1268;23918;-44
2023/05/11 00:19:22;;;;;;;28.60;17.30;;;23.60;54.70;;;;;;221520;1266;22518;-44
2023/05/11 00:24:26;;;;;;;27.70;17.00;;;23.40;55.00;;;;;;221587;1257;22673;-43
2023/05/11 00:29:31;;;;;;;28.80;16.90;;;23.50;54.90;;;;;;221450;1257;22511;-43
2023/05/11 00:34:34;;;;;;;25.50;16.10;;;23.50;55.00;;;;;;221355;1263;25889;-45
2023/05/11 00:39:41;;;;;;;23.80;15.90;;;23.40;55.40;;;;;;221413;1257;25214;-46
2023/05/11 00:44:46;;;;;;;25.50;15.70;;;23.40;55.20;;;;;;221326;1247;22531;-44
2023/05/11 00:49:52;;;;;;;23.40;15.20;;;23.50;55.00;;;;;;221837;1256;22623;-45
2023/05/11 00:54:55;;;;;;;23.30;15.50;;;23.40;55.00;;;;;;221615;1266;22630;-43
2023/05/11 01:00:02;;;;;;;25.60;16.30;;;23.40;55.50;;;;;;221528;1269;22528;-46
2023/05/11 01:05:07;;;;;;;25.60;14.20;;;23.40;55.30;;;;;;221542;1264;25148;-42
2023/05/11 01:10:34;;;;;;;23.90;16.20;;;23.30;55.40;;;;;;221753;1263;23062;-45
2023/05/11 01:15:50;;;;;;;21.70;14.70;;;23.30;55.70;;;;;;221741;1257;22566;-44
2023/05/11 01:21:01;;;;;;;24.80;14.90;;;23.30;55.70;;;;;;221940;1256;25572;-43
2023/05/11 01:26:20;;;;;;;22.20;14.70;;;23.30;55.30;;;;;;221459;1257;24569;-48
2023/05/11 01:31:32;;;;;;;20.20;14.00;;;23.20;55.50;;;;;;221956;1267;25387;-43
2023/05/11 01:36:47;;;;;;;20.90;13.80;;;23.20;55.70;;;;;;221610;1259;25256;-45
2023/05/11 01:41:53;;;;;;;22.00;14.20;;;23.30;55.60;;;;;;221347;1267;22518;-44
2023/05/11 01:47:00;;;;;;;19.00;14.00;;;23.20;55.60;;;;;;223095;1267;23872;-50
2023/05/11 01:52:07;;;;;;;21.40;13.10;;;23.20;55.30;;;;;;229443;1266;23268;-46
2023/05/11 01:57:12;;;;;;;19.20;12.90;;;23.30;55.20;;;;;;229480;1263;23264;-45
2023/05/11 02:02:18;;;;;;;16.80;12.70;;;23.40;54.90;;;;;;226251;1263;22514;-44
2023/05/11 02:07:23;;;;;;;18.10;12.30;;;23.40;55.30;;;;;;221441;1264;23096;-47
2023/05/11 02:12:28;;;;;;;20.90;13.10;;;23.30;55.30;;;;;;221482;1257;230970;-45
2023/05/11 02:17:33;;;;;;;18.40;12.40;;;23.20;55.30;;;;;;221443;1256;23936;-44
2023/05/11 02:22:40;;;;;;;17.50;12.50;;;23.20;55.40;;;;;;221776;1271;23012;-47
2023/05/11 02:27:44;;;;;;;19.00;12.80;;;23.10;55.40;;;;;;221535;1266;23922;-44
2023/05/11 02:32:51;;;;;;;16.10;11.20;;;23.10;55.50;;;;;;221453;1265;22522;-46
2023/05/11 02:37:59;;;;;;;19.10;12.70;;;23.10;56.00;;;;;;221508;1264;22596;-44
2023/05/11 02:43:11;;;;;;;16.00;11.90;;;23.10;55.60;;;;;;221640;1267;22561;-45
2023/05/11 02:48:25;;;;;;;17.50;12.30;;;23.10;55.60;;;;;;221588;1266;22670;-43
2023/05/11 02:53:32;;;;;;;18.40;11.80;;;23.00;55.60;;;;;;221506;1264;25210;-44
2023/05/11 02:58:37;;;;;;;19.60;11.80;;;23.00;55.60;;;;;;221785;1259;24080;-45
2023/05/11 03:04:08;;;;;;;17.80;11.20;;;23.00;55.60;;;;;;221600;1255;23881;-46
2023/05/11 03:09:12;;;;;;;16.40;10.40;;;23.10;55.50;;;;;;221790;1258;25374;-46
2023/05/11 03:14:20;;;;;;;15.40;10.50;;;23.00;55.60;;;;;;221505;1259;22527;-45
2023/05/11 03:19:30;;;;;;;15.60;10.50;;;23.00;55.60;;;;;;221463;1269;22807;-44
2023/05/11 03:24:35;;;;;;;15.50;11.20;;;23.00;55.60;;;;;;221432;1264;25419;-46
2023/05/11 03:29:43;;;;;;;16.50;11.00;;;23.00;56.20;;;;;;221340;1268;22863;-45
2023/05/11 03:34:50;;;;;;;14.20;10.30;;;23.00;55.60;;;;;;221562;1268;22517;-45
2023/05/11 03:39:58;;;;;;;14.20;10.00;;;23.00;55.90;;;;;;221612;1266;22647;-44
2023/05/11 03:45:04;;;;;;;12.90;9.30;;;23.00;55.60;;;;;;221439;1266;22774;-44
2023/05/11 03:50:10;;;;;;;11.30;9.30;;;23.00;55.60;;;;;;221577;1265;24237;-48
2023/05/11 03:55:15;;;;;;;11.40;9.30;;;22.90;55.50;;;;;;221538;1266;22511;-46
2023/05/11 04:00:19;;;;;;;13.60;9.30;;;22.90;55.90;;;;;;221581;1268;25104;-45
2023/05/11 04:05:23;;;;;;;13.70;9.40;;;22.90;55.50;;;;;;221565;1267;22629;-47
2023/05/11 04:10:27;;;;;;;13.90;9.80;;;22.90;56.00;;;;;;222064;1270;26670;-45
2023/05/11 04:15:34;;;;;;;12.10;9.00;;;22.90;55.60;;;;;;221774;1269;23893;-46
2023/05/11 04:20:39;;;;;;;12.60;9.00;;;22.90;55.60;;;;;;221472;1257;23979;-44
2023/05/11 04:25:43;;;;;;;14.00;9.10;;;22.80;55.60;;;;;;221440;1263;22516;-45
2023/05/11 04:30:55;;;;;;;10.40;8.00;;;22.90;55.80;;;;;;221452;1260;22541;-43
2023/05/11 04:36:00;;;;;;;12.50;9.00;;;22.80;55.60;;;;;;221770;1271;22584;-45
2023/05/11 04:41:07;;;;;;;11.70;8.60;;;22.80;55.90;;;;;;221621;1262;22674;-44
2023/05/11 04:46:12;;;;;;;10.40;8.00;;;22.80;55.70;;;;;;221660;1260;24216;-47
2023/05/11 04:51:16;;;;;;;10.10;8.30;;;22.80;55.60;;;;;;221434;1264;23011;-44
2023/05/11 04:56:21;;;;;;;11.30;7.90;;;22.80;55.60;;;;;;221415;1271;24186;-47
2023/05/11 05:01:26;;;;;;;7.90;7.10;;;22.80;55.60;;;;;;221621;1265;25380;-45
2023/05/11 05:06:31;;;;;;;12.30;8.40;;;22.80;55.50;;;;;;221370;1270;22535;-45
2023/05/11 05:11:35;;;;;;;8.40;7.30;;;22.80;55.50;;;;;;223250;1269;22522;-45
2023/05/11 05:16:39;;;;;;;11.20;8.10;;;22.90;55.30;;;;;;222863;1271;22518;-47
2023/05/11 05:21:43;;;;;;;12.00;8.20;;;22.80;55.50;;;;;;221539;1257;22959;-44
2023/05/11 05:26:47;;;;;;;9.50;6.90;;;22.80;55.50;;;;;;221826;1267;25490;-45
2023/05/11 05:31:52;;;;;;;10.90;8.00;;;22.80;55.40;;;;;;221706;1264;24212;-45
2023/05/11 05:36:57;;;;;;;10.70;7.70;;;22.70;55.60;;;;;;221750;1267;25337;-46
2023/05/11 05:42:03;;;;;;;9.30;7.30;;;22.70;55.60;;;;;;221677;1271;22574;-48
2023/05/11 05:47:07;;;;;;;10.30;7.60;;;22.70;55.60;;;;;;221943;1264;22682;-44
2023/05/11 05:52:12;;;;;;;11.30;7.60;;;22.60;56.00;;;;;;221612;1267;24185;-43
2023/05/11 05:57:17;;;;;;;9.10;7.20;;;22.70;55.70;;;;;;221684;1267;22515;-45
2023/05/11 06:02:21;;;;;;;8.00;6.40;;;22.70;55.80;;;;;;221484;1265;22533;-47
2023/05/11 06:07:26;;;;;;;8.30;6.70;;;22.70;56.20;;;;;;221463;1260;24240;-47
2023/05/11 06:12:30;;;;;;;10.60;7.20;;;22.70;56.10;;;;;;221491;1249;22504;-45
2023/05/11 06:17:34;;;;;;;10.80;6.90;;;22.90;56.20;;;;;;221453;1256;25939;-45
2023/05/11 06:22:39;;;;;;;13.00;7.10;;;23.00;56.30;;;;;;221733;1267;22706;-45
2023/05/11 06:27:44;;;;;;;18.20;6.70;;;23.00;56.40;;;;;;222092;1264;25328;-46
2023/05/11 06:32:49;;;;;;;13.90;6.40;;;23.00;57.10;;;;;;221925;1267;22614;-48
2023/05/11 06:37:54;;;;;;;12.10;6.40;;;23.10;57.00;;;;;;221828;1261;24218;-46
2023/05/11 06:42:58;;;;;;;14.90;6.90;;;23.10;56.80;;;;;;221443;1270;24227;-46
2023/05/11 06:48:12;;;;;;;20.80;7.20;;;23.10;57.00;;;;;;221598;1261;23925;-44
2023/05/11 06:53:17;;;;;;;45.80;16.40;;;23.10;57.10;;;;;;221711;1257;22625;-49
2023/05/11 06:58:21;;;;;;;47.60;21.00;;;23.20;56.90;;;;;;221600;1264;22510;-50
2023/05/11 07:03:25;;;;;;;70.20;29.50;;;23.20;57.00;;;;;;221974;1264;22535;-51
2023/05/11 07:08:29;;;;;;;130.70;50.00;;;23.30;57.00;;;;;;221460;1256;22612;-47
2023/05/11 07:13:34;;;;;;;89.50;37.60;;;23.30;57.20;;;;;;221914;1260;22534;-48
2023/05/11 07:18:38;;;;;;;94.20;43.40;;;23.20;57.10;;;;;;221802;1257;22565;-48
2023/05/11 07:23:43;;;;;;;92.30;39.50;;;23.30;56.90;;;;;;223840;1267;22774;-50
2023/05/11 07:28:47;;;;;;;73.10;33.10;;;23.30;56.50;;;;;;221615;1264;25387;-50
2023/05/11 07:33:52;;;;;;;75.20;34.40;;;23.30;56.20;;;;;;221931;1267;23510;-54
2023/05/11 07:38:58;;;;;;;66.50;32.70;;;23.20;56.20;;;;;;222055;1264;25217;-52
2023/05/11 07:44:21;;;;;;;63.60;30.50;;;23.30;56.20;;;;;;222153;1260;22511;-49
2023/05/11 07:49:25;;;;;;;56.20;29.40;;;23.20;56.10;;;;;;222083;1263;23889;-49
2023/05/11 07:54:45;;;;;;;51.70;27.70;;;23.20;56.00;;;;;;222016;1265;22903;-51
2023/05/11 07:59:50;;;;;;;51.80;27.30;;;23.20;56.00;;;;;;221768;1267;24360;-51
2023/05/11 08:04:54;;;;;;;51.20;24.80;;;23.20;55.90;;;;;;221801;1271;22850;-48
2023/05/11 08:09:58;;;;;;;50.60;24.60;;;23.20;55.80;;;;;;221714;1266;24370;-49
2023/05/11 08:15:03;;;;;;;51.90;24.70;;;23.20;55.80;;;;;;221805;1259;23119;-52
2023/05/11 08:20:08;;;;;;;44.40;23.50;;;23.30;55.70;;;;;;221808;1257;24200;-52
2023/05/11 08:25:12;;;;;;;40.30;22.90;;;23.30;55.60;;;;;;221947;1260;22624;-52
2023/05/11 08:30:17;;;;;;;43.60;23.10;;;23.30;55.50;;;;;;222077;1257;25463;-45
2023/05/11 08:35:22;;;;;;;38.80;21.60;;;23.30;55.20;;;;;;221902;1271;24196;-49
2023/05/11 08:40:29;;;;;;;39.30;21.20;;;23.40;55.10;;;;;;221841;1267;22516;-48
2023/05/11 08:45:36;;;;;;;40.30;21.70;;;23.40;55.50;;;;;;222089;1263;22518;-50
2023/05/11 08:50:47;;;;;;;29.20;19.80;;;23.40;55.40;;;;;;221777;1264;24124;-50
2023/05/11 08:55:53;;;;;;;33.40;19.00;;;23.30;55.10;;;;;;221839;1260;23889;-53
2023/05/11 09:00:58;;;;;;;33.00;19.10;;;23.40;55.10;;;;;;221917;1263;22522;-51
2023/05/11 09:06:06;;;;;;;31.00;18.30;;;23.40;54.90;;;;;;221878;1264;24308;-50
2023/05/11 09:11:10;;;;;;;33.00;18.90;;;23.50;54.80;;;;;;221846;1260;22537;-51
2023/05/11 09:16:14;;;;;;;32.60;19.00;;;23.50;54.50;;;;;;221667;1264;22666;-46
2023/05/11 09:21:38;;;;;;;29.50;17.70;;;23.50;55.80;;;;;;221667;1261;24353;-50
2023/05/11 09:26:42;;;;;;;33.00;17.30;;;23.50;55.00;;;;;;221735;1263;22771;-47
2023/05/11 09:31:46;;;;;;;34.60;17.80;;;23.40;55.80;;;;;;222184;1263;24189;-46
2023/05/11 09:36:52;;;;;;;30.70;16.20;;;23.50;55.80;;;;;;221673;1270;22626;-49
2023/05/11 09:42:13;;;;;;;28.70;17.00;;;23.50;56.00;;;;;;221693;1263;24189;-50
2023/05/11 09:47:19;;;;;;;27.20;15.60;;;23.50;56.00;;;;;;221840;1265;24179;-50
2023/05/11 09:52:23;;;;;;;26.10;17.10;;;23.60;56.10;;;;;;222112;1263;22517;-49
2023/05/11 09:57:31;;;;;;;22.90;15.30;;;23.60;56.40;;;;;;221839;1266;22537;-50
2023/05/11 10:02:35;;;;;;;23.60;15.60;;;23.50;57.00;;;;;;222081;1260;24355;-47
2023/05/11 10:07:39;;;;;;;21.20;12.70;;;23.60;56.90;;;;;;221951;1265;25700;-50
2023/05/11 10:12:43;;;;;;;20.90;14.30;;;23.60;56.40;;;;;;221840;1263;24190;-51
2023/05/11 10:17:48;;;;;;;12.00;8.40;;;23.60;52.90;;;;;;221886;1259;22517;-53
2023/05/11 10:22:54;;;;;;;8.80;5.60;;;23.60;49.30;;;;;;221830;1256;22636;-50
2023/05/11 10:27:58;;;;;;;10.60;5.40;;;23.40;46.00;;;;;;221774;1257;24055;-53
2023/05/11 10:33:05;;;;;;;8.60;4.60;;;23.50;44.40;;;;;;221930;1268;22640;-52
2023/05/11 10:38:09;;;;;;;9.30;4.20;;;23.40;44.70;;;;;;222193;1260;22531;-53
2023/05/11 10:43:56;;;;;;;7.50;3.30;;;23.20;44.10;;;;;;221931;1263;24291;-50
2023/05/11 10:49:45;;;;;;;4.60;2.70;;;23.00;42.50;;;;;;221641;1267;24187;-56
2023/05/11 10:54:55;;;;;;;4.60;2.80;;;23.00;42.70;;;;;;222074;1266;22534;-51
2023/05/11 11:00:34;;;;;;;3.20;2.40;;;23.30;42.50;;;;;;222118;1258;22604;-52
2023/05/11 11:05:39;;;;;;;3.40;2.10;;;23.50;40.80;;;;;;221921;1264;26586;-49
2023/05/11 11:10:50;;;;;;;4.60;2.50;;;23.30;40.30;;;;;;221938;1267;25319;-53
2023/05/11 11:15:54;;;;;;;5.00;2.20;;;23.10;40.70;;;;;;221739;1260;22525;-52
2023/05/11 11:20:59;;;;;;;4.50;2.50;;;22.90;41.60;;;;;;222132;1256;22612;-54
2023/05/11 11:26:04;;;;;;;2.20;2.00;;;22.70;41.80;;;;;;221764;1258;22508;-54
2023/05/11 11:31:25;;;;;;;3.10;2.50;;;22.60;41.80;;;;;;221804;1262;22544;-52
2023/05/11 11:36:54;;;;;;;2.60;2.40;;;22.60;41.80;;;;;;221829;1259;22636;-54
2023/05/11 11:42:07;;;;;;;2.40;2.30;;;22.70;42.20;;;;;;221924;1269;24337;-52
2023/05/11 11:47:19;;;;;;;4.30;2.20;;;22.50;42.10;;;;;;221832;1266;25239;-51
2023/05/11 11:52:27;;;;;;;3.00;2.20;;;22.50;41.70;;;;;;221760;1259;22536;-49
2023/05/11 11:57:51;;;;;;;2.10;1.90;;;22.40;42.00;;;;;;221966;1264;22520;-49
2023/05/11 12:02:56;;;;;;;5.90;2.10;;;22.50;42.80;;;;;;222170;1259;22511;-46
2023/05/11 12:08:06;;;;;;;6.40;2.50;;;22.80;42.30;;;;;;222087;1266;24196;-52
2023/05/11 12:13:10;;;;;;;3.30;2.00;;;23.00;41.10;;;;;;221739;1256;23140;-46
2023/05/11 12:18:21;;;;;;;2.60;2.30;;;23.10;41.50;;;;;;225537;1266;25247;-46
2023/05/11 12:23:26;;;;;;;3.50;2.70;;;23.20;42.70;;;;;;228981;1267;22514;-46
2023/05/11 12:28:31;;;;;;;3.20;2.70;;;23.20;42.70;;;;;;222099;1262;25396;-48
2023/05/11 12:33:47;;;;;;;4.40;2.30;;;23.00;43.10;;;;;;221790;1256;24376;-47
2023/05/11 12:38:51;;;;;;;3.60;2.70;;;23.10;43.90;;;;;;221788;1264;25217;-49
2023/05/11 12:43:55;;;;;;;4.10;2.90;;;22.80;44.30;;;;;;222043;1266;22496;-50
2023/05/11 12:49:00;;;;;;;3.30;3.00;;;22.80;44.20;;;;;;221811;1247;22599;-46
2023/05/11 12:54:04;;;;;;;3.20;2.90;;;22.90;44.10;;;;;;221855;1266;22525;-49
2023/05/11 12:59:26;;;;;;;6.60;2.90;;;23.00;45.00;;;;;;221753;1266;22524;-49
2023/05/11 13:04:31;;;;;;;2.90;2.60;;;22.90;44.60;;;;;;221814;1266;22525;-47
2023/05/11 13:09:36;;;;;;;7.10;4.50;;;23.00;44.30;;;;;;222146;1259;24399;-46
2023/05/11 13:14:40;;;;;;;5.10;3.20;;;22.70;44.60;;;;;;221758;1269;22672;-49
2023/05/11 13:19:44;;;;;;;5.10;3.50;;;22.70;45.60;;;;;;221719;1262;22518;-46
2023/05/11 13:24:49;;;;;;;3.00;2.50;;;22.80;45.90;;;;;;221807;1264;22520;-46
2023/05/11 13:29:53;;;;;;;3.80;3.10;;;22.90;44.90;;;;;;221763;1263;24215;-45
2023/05/11 13:35:06;;;;;;;4.00;2.90;;;23.00;46.20;;;;;;221797;1268;22554;-46
2023/05/11 13:40:10;;;;;;;4.40;3.90;;;23.00;46.70;;;;;;222103;1265;22521;-47
2023/05/11 13:45:14;;;;;;;4.20;3.10;;;23.10;47.10;;;;;;221840;1264;25279;-47
2023/05/11 13:50:22;;;;;;;7.30;2.80;;;23.30;49.00;;;;;;221734;1267;22511;-46
2023/05/11 13:55:27;;;;;;;3.70;2.50;;;23.40;48.80;;;;;;221827;1256;22524;-45
2023/05/11 14:00:33;;;;;;;4.70;3.70;;;23.20;46.50;;;;;;221986;1257;22537;-45
2023/05/11 14:05:38;;;;;;;4.90;2.70;;;23.00;44.80;;;;;;225151;1265;23346;-45
2023/05/11 14:10:43;;;;;;;3.30;2.80;;;22.90;44.60;;;;;;227531;1267;257357;-46
2023/05/11 14:15:47;;;;;;;2.90;2.70;;;23.00;43.00;;;;;;221869;1265;22876;-47
2023/05/11 14:20:53;;;;;;;3.90;3.50;;;23.00;43.30;;;;;;221890;1256;22623;-47
2023/05/11 14:25:57;;;;;;;3.80;3.60;;;22.80;42.60;;;;;;222014;1253;24158;-45
2023/05/11 14:31:01;;;;;;;5.70;3.40;;;22.70;42.30;;;;;;221747;1263;22532;-45
2023/05/11 14:36:07;;;;;;;3.80;3.50;;;22.70;42.50;;;;;;221830;1265;22517;-46
2023/05/11 14:41:11;;;;;;;4.70;3.60;;;22.70;42.00;;;;;;222329;1266;24170;-49
2023/05/11 14:46:15;;;;;;;3.20;2.70;;;22.50;41.10;;;;;;222147;1250;24229;-45
2023/05/11 14:51:19;;;;;;;5.20;3.00;;;22.50;41.30;;;;;;222075;1265;22520;-46
2023/05/11 14:56:25;;;;;;;2.50;2.30;;;22.50;41.40;;;;;;222033;1263;22524;-44
2023/05/11 15:01:29;;;;;;;4.60;3.30;;;22.50;42.60;;;;;;222162;1265;22628;-48
2023/05/11 15:06:34;;;;;;;9.20;2.90;;;22.60;41.80;;;;;;222039;1266;22780;-51
2023/05/11 15:11:38;;;;;;;9.40;3.20;;;22.70;42.80;;;;;;221953;1256;22666;-46
2023/05/11 15:16:42;;;;;;;5.90;2.60;;;22.70;42.70;;;;;;221927;1263;24267;-50
2023/05/11 15:21:46;;;;;;;8.80;3.40;;;22.80;42.10;;;;;;221827;1265;25580;-46
2023/05/11 15:26:50;;;;;;;3.80;2.90;;;22.70;42.10;;;;;;221605;1269;22527;-48
2023/05/11 15:31:55;;;;;;;4.50;3.40;;;22.70;44.70;;;;;;221839;1266;25397;-46
2023/05/11 15:36:59;;;;;;;5.90;3.00;;;23.00;45.50;;;;;;221776;1263;24167;-45
2023/05/11 15:42:07;;;;;;;7.00;3.50;;;23.10;45.90;;;;;;221775;1265;24354;-43
2023/05/11 15:47:11;;;;;;;20.00;6.60;;;23.10;47.60;;;;;;221916;1256;24787;-51
2023/05/11 15:52:15;;;;;;;17.90;6.50;;;23.30;48.00;;;;;;221872;1256;22510;-44
2023/05/11 15:57:19;;;;;;;13.10;5.00;;;23.40;50.00;;;;;;221648;1261;24167;-50
2023/05/11 16:02:23;;;;;;;10.70;4.60;;;23.50;50.10;;;;;;221771;1262;24210;-47
2023/05/11 16:07:28;;;;;;;14.70;4.90;;;23.60;49.90;;;;;;221843;1257;24190;-54
2023/05/11 16:12:32;;;;;;;11.20;4.70;;;23.70;48.60;;;;;;221852;1256;22513;-60
2023/05/11 16:17:39;;;;;;;10.10;4.30;;;23.70;50.30;;;;;;221787;1261;23889;-57
2023/05/11 16:22:46;;;;;;;7.20;4.20;;;23.70;49.90;;;;;;221787;1264;22583;-59
2023/05/11 16:27:50;;;;;;;3.70;2.80;;;23.60;47.90;;;;;;221781;1266;22803;-59
2023/05/11 16:32:55;;;;;;;6.00;3.10;;;23.00;40.80;;;;;;221817;1267;25397;-57
2023/05/11 16:38:01;;;;;;;4.00;2.50;;;22.90;41.20;;;;;;221678;1267;22633;-61
2023/05/11 16:43:05;;;;;;;7.00;3.00;;;23.00;41.70;;;;;;221705;1270;22911;-64
2023/05/11 16:48:09;;;;;;;3.30;3.00;;;22.90;41.60;;;;;;221880;1267;22531;-57
2023/05/11 16:53:14;;;;;;;4.50;2.80;;;23.00;41.80;;;;;;221835;1251;24099;-56
2023/05/11 16:58:22;;;;;;;3.20;2.80;;;23.10;41.50;;;;;;221975;1265;22517;-58
2023/05/11 17:03:27;;;;;;;3.70;2.70;;;23.20;42.40;;;;;;221873;1265;22569;-55
2023/05/11 17:08:33;;;;;;;5.70;3.00;;;23.20;42.30;;;;;;222046;1265;23913;-57
2023/05/11 17:13:37;;;;;;;6.60;3.20;;;23.30;42.40;;;;;;222009;1264;25262;-59
2023/05/11 17:18:41;;;;;;;12.50;3.60;;;23.30;43.10;;;;;;221895;1265;25037;-61
2023/05/11 17:23:45;;;;;;;46.80;6.30;;;23.30;43.10;;;;;;221740;1256;24191;-57
2023/05/11 17:28:50;;;;;;;15.90;5.20;;;23.30;44.50;;;;;;221860;1265;24063;-62
2023/05/11 17:33:54;;;;;;;18.60;5.50;;;23.30;44.50;;;;;;221776;1259;22531;-62
2023/05/11 17:38:58;;;;;;;21.10;6.10;;;23.50;44.10;;;;;;221765;1263;22515;-61
2023/05/11 17:44:03;;;;;;;10.10;4.70;;;23.50;43.90;;;;;;221658;1260;23007;-60
2023/05/11 17:49:08;;;;;;;13.40;3.90;;;23.30;44.30;;;;;;221661;1267;26621;-57
2023/05/11 17:54:12;;;;;;;11.50;3.60;;;23.10;44.10;;;;;;221822;1259;25259;-55
2023/05/11 17:59:16;;;;;;;10.60;3.90;;;23.00;43.20;;;;;;221982;1256;22526;-45
2023/05/11 18:04:23;;;;;;;5.70;3.40;;;22.90;42.50;;;;;;221916;1265;22519;-47
2023/05/11 18:09:28;;;;;;;11.00;3.40;;;22.80;42.70;;;;;;221843;1266;22522;-44
2023/05/11 18:14:33;;;;;;;7.60;3.10;;;22.80;42.10;;;;;;221943;1265;22510;-46
2023/05/11 18:19:37;;;;;;;6.00;3.20;;;22.80;41.90;;;;;;221923;1265;22618;-48
2023/05/11 18:24:44;;;;;;;12.70;3.40;;;22.60;42.20;;;;;;221674;1250;22516;-46
2023/05/11 18:29:48;;;;;;;8.40;3.40;;;22.70;41.90;;;;;;221949;1259;26576;-49
2023/05/11 18:34:53;;;;;;;7.50;3.10;;;22.90;42.10;;;;;;221879;1263;24447;-50
2023/05/11 18:39:57;;;;;;;16.30;3.50;;;23.10;45.40;;;;;;222035;1263;22523;-50
2023/05/11 18:45:02;;;;;;;9.50;3.60;;;23.30;51.00;;;;;;221836;1267;22540;-48
2023/05/11 18:50:07;;;;;;;9.80;3.10;;;23.40;56.10;;;;;;221739;1259;26642;-46
2023/05/11 18:55:11;;;;;;;20.80;3.30;;;23.60;60.20;;;;;;221547;1262;24197;-58
2023/05/11 19:00:16;;;;;;;43.50;14.30;;;23.60;59.80;;;;;;221726;1257;22509;-52
2023/05/11 19:05:22;;;;;;;24.20;10.90;;;23.70;57.30;;;;;;221688;1259;22526;-56
2023/05/11 19:10:27;;;;;;;34.30;11.80;;;23.90;57.80;;;;;;221684;1259;22537;-54
2023/05/11 19:15:32;;;;;;;28.80;8.80;;;23.90;58.60;;;;;;221608;1267;22541;-56
2023/05/11 19:20:37;;;;;;;23.70;8.70;;;24.10;56.20;;;;;;221714;1260;24224;-54
2023/05/11 19:25:44;;;;;;;20.20;7.40;;;24.00;55.40;;;;;;221849;1256;25545;-51
2023/05/11 19:31:01;;;;;;;24.20;7.50;;;23.90;54.70;;;;;;221757;1258;25498;-49
2023/05/11 19:36:07;;;;;;;14.20;6.50;;;23.90;54.60;;;;;;221614;1265;22925;-43
2023/05/11 19:41:12;;;;;;;17.40;6.10;;;23.70;54.50;;;;;;221638;1260;22919;-49
2023/05/11 19:46:16;;;;;;;13.10;5.90;;;23.60;53.90;;;;;;221905;1265;22568;-45
2023/05/11 19:51:21;;;;;;;9.80;5.40;;;23.60;54.00;;;;;;222149;1256;25491;-49
2023/05/11 19:56:25;;;;;;;11.00;5.50;;;23.60;53.60;;;;;;222027;1266;22573;-47
2023/05/11 20:01:29;;;;;;;11.40;5.30;;;23.60;53.10;;;;;;221891;1262;22626;-50
2023/05/11 20:06:34;;;;;;;15.50;5.30;;;23.60;53.20;;;;;;221896;1269;24036;-47
2023/05/11 20:11:38;;;;;;;14.20;4.70;;;23.60;52.90;;;;;;221932;1260;24047;-49
2023/05/11 20:16:43;;;;;;;18.20;5.60;;;23.60;52.90;;;;;;221901;1263;22822;-48
2023/05/11 20:21:47;;;;;;;10.90;4.50;;;23.60;52.90;;;;;;221620;1266;25242;-45
2023/05/11 20:26:52;;;;;;;14.40;5.00;;;23.60;52.60;;;;;;221805;1263;24193;-48
2023/05/11 20:31:56;;;;;;;6.00;4.30;;;23.70;52.80;;;;;;221828;1259;22665;-49
2023/05/11 20:37:01;;;;;;;12.10;4.20;;;23.60;52.40;;;;;;221909;1254;22516;-44
2023/05/11 20:42:06;;;;;;;9.90;4.50;;;23.60;51.70;;;;;;221700;1264;22523;-49
2023/05/11 20:47:10;;;;;;;14.40;5.10;;;23.60;53.00;;;;;;221875;1264;22536;-44
2023/05/11 20:52:16;;;;;;;16.10;4.30;;;23.60;53.40;;;;;;221741;1253;22540;-46
2023/05/11 20:57:26;;;;;;;15.10;4.70;;;23.60;52.70;;;;;;221656;1247;23909;-48
2023/05/11 21:02:34;;;;;;;8.80;4.70;;;23.60;52.40;;;;;;221992;1259;22517;-51
2023/05/11 21:07:39;;;;;;;12.60;3.80;;;23.60;52.50;;;;;;221864;1253;24370;-49
2023/05/11 21:12:43;;;;;;;7.60;4.00;;;23.60;52.40;;;;;;221641;1263;22526;-48
2023/05/11 21:17:48;;;;;;;12.50;4.00;;;23.60;52.70;;;;;;221935;1256;22599;-47
2023/05/11 21:22:53;;;;;;;8.80;4.00;;;23.50;52.50;;;;;;221704;1264;22502;-53
2023/05/11 21:27:59;;;;;;;11.90;4.10;;;23.60;52.50;;;;;;221949;1259;24656;-52
2023/05/11 21:33:03;;;;;;;10.80;4.00;;;23.50;52.20;;;;;;221739;1259;22523;-51
2023/05/11 21:38:08;;;;;;;12.80;4.90;;;23.50;52.40;;;;;;221735;1267;25309;-47
2023/05/11 21:43:12;;;;;;;8.20;4.10;;;23.50;53.60;;;;;;221778;1257;25239;-49
2023/05/11 21:48:16;;;;;;;8.30;4.30;;;23.40;53.30;;;;;;221556;1268;22644;-50
2023/05/11 21:53:22;;;;;;;14.20;4.50;;;23.50;55.30;;;;;;221794;1257;22636;-48
2023/05/11 21:58:26;;;;;;;9.30;4.40;;;23.60;56.00;;;;;;221809;1262;22767;-52
2023/05/11 22:03:31;;;;;;;13.80;4.60;;;23.50;58.10;;;;;;221906;1265;22596;-47
2023/05/11 22:08:35;;;;;;;9.10;4.50;;;23.50;57.20;;;;;;222173;1267;24219;-48
2023/05/11 22:13:39;;;;;;;7.50;4.60;;;23.50;56.90;;;;;;221765;1268;22730;-49
2023/05/11 22:18:43;;;;;;;10.20;4.20;;;23.50;56.60;;;;;;221738;1260;22516;-46
2023/05/11 22:23:48;;;;;;;9.70;3.90;;;23.40;56.50;;;;;;221922;1257;24192;-47
2023/05/11 22:28:52;;;;;;;8.80;3.90;;;23.50;56.20;;;;;;221748;1264;22639;-50
2023/05/11 22:33:57;;;;;;;6.30;3.40;;;23.40;56.30;;;;;;221738;1269;22522;-50
2023/05/11 22:39:01;;;;;;;6.20;3.00;;;23.30;56.10;;;;;;221671;1264;25041;-49
2023/05/11 22:44:05;;;;;;;8.70;3.90;;;23.30;55.50;;;;;;221485;1248;22525;-46
2023/05/11 22:49:10;;;;;;;15.10;4.00;;;23.30;56.00;;;;;;221854;1266;24212;-44
2023/05/11 22:54:14;;;;;;;5.20;3.60;;;23.40;55.40;;;;;;222352;1266;22501;-50
2023/05/11 22:59:18;;;;;;;6.30;3.70;;;23.40;55.50;;;;;;222256;1257;22611;-46
2023/05/11 23:04:22;;;;;;;6.50;3.80;;;23.50;55.80;;;;;;222213;1258;22526;-45
2023/05/11 23:09:27;;;;;;;7.90;3.60;;;23.40;55.30;;;;;;221691;1271;22647;-48
2023/05/11 23:14:31;;;;;;;4.40;2.90;;;23.40;55.40;;;;;;221527;1249;24083;-45
2023/05/11 23:19:35;;;;;;;5.30;3.30;;;23.50;55.30;;;;;;221411;1265;22661;-44
2023/05/11 23:24:39;;;;;;;9.10;3.90;;;23.50;54.90;;;;;;221339;1270;25607;-45
2023/05/11 23:29:45;;;;;;;6.70;3.70;;;23.50;54.80;;;;;;222269;1256;22521;-47
2023/05/11 23:34:49;;;;;;;6.20;3.90;;;23.60;55.40;;;;;;221860;1266;24254;-45
2023/05/11 23:39:53;;;;;;;3.90;3.30;;;23.60;55.60;;;;;;222056;1266;22510;-49
2023/05/11 23:45:03;;;;;;;8.90;3.90;;;23.60;54.90;;;;;;221772;1270;22551;-46
2023/05/11 23:50:08;;;;;;;7.50;4.00;;;23.60;55.60;;;;;;221694;1265;22573;-48
2023/05/11 23:55:12;;;;;;;3.90;3.50;;;23.50;55.80;;;;;;221474;1272;25479;-45
